createdAt,value
2018-07-10T00:02:33.369Z,6.13
2018-07-10T00:05:44.316Z,5.90
2018-07-10T00:10:27.097Z,7.00
2018-07-10T00:12:57.300Z,6.43
2018-07-10T00:15:27.760Z,8.27
2018-07-10T00:17:57.217Z,7.23
2018-07-10T00:20:28.201Z,7.33
2018-07-10T00:22:57.845Z,5.40
2018-07-10T00:25:27.725Z,8.43
2018-07-10T00:27:57.673Z,7.77
2018-07-10T00:30:27.444Z,6.90
2018-07-10T00:32:57.336Z,5.63
2018-07-10T00:35:27.229Z,9.30
2018-07-10T00:38:08.050Z,7.97
2018-07-10T00:40:38.129Z,5.67
2018-07-10T00:43:10.953Z,6.50
2018-07-10T00:45:42.095Z,7.63
2018-07-10T00:48:11.773Z,6.23
2018-07-10T00:50:41.480Z,6.20
2018-07-10T00:53:11.448Z,7.13
2018-07-10T00:55:41.057Z,6.50
2018-07-10T00:58:10.944Z,6.97
2018-07-10T01:00:40.554Z,7.10
2018-07-10T01:03:10.541Z,7.13
2018-07-10T01:05:40.397Z,7.10
2018-07-10T01:08:09.969Z,6.53
2018-07-10T01:10:40.554Z,7.57
2018-07-10T01:13:10.797Z,6.67
2018-07-10T01:15:40.716Z,5.70
2018-07-10T01:18:10.648Z,6.47
2018-07-10T01:20:40.359Z,5.97
2018-07-10T01:23:10.434Z,6.33
2018-07-10T01:25:40.909Z,5.57
2018-07-10T01:28:11.026Z,7.47
2018-07-10T01:30:41.153Z,9.93
2018-07-10T01:33:10.665Z,9.60
2018-07-10T01:35:41.077Z,10.17
2018-07-10T01:38:11.408Z,9.17
2018-07-10T01:40:41.981Z,8.77
2018-07-10T01:43:12.597Z,10.60
2018-07-10T01:45:42.444Z,8.17
2018-07-10T01:48:12.510Z,7.03
2018-07-10T01:50:43.296Z,7.97
2018-07-10T01:53:13.093Z,9.60
2018-07-10T01:55:42.645Z,12.50
2018-07-10T01:58:12.562Z,9.23
2018-07-10T02:00:44.360Z,9.47
2018-07-10T02:03:15.071Z,9.93
2018-07-10T02:05:45.369Z,8.90
2018-07-10T02:08:16.044Z,9.73
2018-07-10T02:10:45.549Z,8.87
2018-07-10T02:13:15.235Z,7.00
2018-07-10T02:15:44.729Z,6.87
2018-07-10T02:18:14.862Z,7.70
2018-07-10T02:21:00.981Z,5.60
2018-07-10T02:23:38.026Z,4.40
2018-07-10T02:26:11.253Z,7.67
2018-07-10T02:28:41.548Z,8.17
2018-07-10T02:31:11.638Z,6.00
2018-07-10T02:33:41.308Z,7.40
2018-07-10T02:36:11.161Z,6.87
2018-07-10T02:38:45.941Z,7.07
2018-07-10T02:41:19.070Z,8.17
2018-07-10T02:43:53.714Z,10.37
2018-07-10T02:46:23.566Z,6.90
2018-07-10T02:48:54.645Z,8.80
2018-07-10T02:51:25.053Z,9.67
2018-07-10T02:53:55.497Z,10.20
2018-07-10T02:56:25.470Z,10.07
2018-07-10T02:58:56.126Z,9.73
2018-07-10T03:01:26.261Z,9.50
2018-07-10T03:03:56.114Z,9.80
2018-07-10T03:06:26.676Z,12.43
2018-07-10T03:08:56.722Z,9.67
2018-07-10T03:11:26.841Z,9.07
2018-07-10T03:13:57.056Z,10.13
2018-07-10T03:16:26.665Z,8.90
2018-07-10T03:18:56.237Z,10.53
2018-07-10T03:21:26.633Z,8.47
2018-07-10T03:23:56.764Z,7.57
2018-07-10T03:26:26.598Z,10.93
2018-07-10T03:28:57.045Z,6.43
2018-07-10T03:31:27.026Z,7.73
2018-07-10T03:33:57.046Z,7.13
2018-07-10T03:36:26.951Z,6.53
2018-07-10T03:38:56.980Z,9.53
2018-07-10T03:41:26.749Z,7.67
2018-07-10T03:43:56.689Z,5.60
2018-07-10T03:46:26.564Z,7.37
2018-07-10T03:48:57.496Z,13.67
2018-07-10T03:51:26.825Z,7.53
2018-07-10T03:53:56.889Z,14.53
2018-07-10T03:56:26.850Z,16.40
2018-07-10T03:58:58.307Z,18.77
2018-07-10T04:01:33.459Z,42.53
2018-07-10T04:04:03.090Z,25.63
2018-07-10T04:06:33.074Z,18.03
2018-07-10T04:09:04.014Z,12.67
2018-07-10T04:11:34.042Z,14.50
2018-07-10T04:14:03.881Z,9.63
2018-07-10T04:16:33.540Z,11.50
2018-07-10T04:19:03.352Z,7.67
2018-07-10T04:21:34.853Z,6.60
2018-07-10T04:24:10.729Z,6.10
2018-07-10T04:26:49.509Z,8.60
2018-07-10T04:29:26.808Z,8.93
2018-07-10T04:32:00.395Z,7.43
2018-07-10T04:34:32.713Z,7.73
2018-07-10T04:37:09.825Z,10.80
2018-07-10T04:39:43.101Z,9.27
2018-07-10T04:42:22.074Z,8.57
2018-07-10T04:45:08.058Z,10.33
2018-07-10T04:47:43.621Z,9.33
2018-07-10T04:50:24.843Z,7.40
2018-07-10T04:53:09.756Z,9.87
2018-07-10T04:55:42.006Z,7.87
2018-07-10T04:58:18.340Z,8.47
2018-07-10T05:00:55.741Z,9.97
2018-07-10T05:03:27.433Z,7.03
2018-07-10T05:05:57.776Z,10.13
2018-07-10T05:08:28.044Z,11.03
2018-07-10T05:10:57.550Z,8.13
2018-07-10T05:13:27.989Z,8.43
2018-07-10T05:16:04.709Z,8.60
2018-07-10T05:18:35.760Z,9.10
2018-07-10T05:21:13.768Z,10.10
2018-07-10T05:23:44.117Z,7.03
2018-07-10T05:26:16.245Z,5.83
2018-07-10T05:28:47.207Z,6.73
2018-07-10T05:31:18.249Z,6.53
2018-07-10T05:33:51.527Z,7.17
2018-07-10T05:36:24.753Z,6.87
2018-07-10T05:39:05.957Z,4.75
2018-07-10T05:41:44.781Z,6.13
2018-07-10T05:44:21.150Z,7.47
2018-07-10T05:46:51.072Z,8.67
2018-07-10T05:49:21.334Z,6.70
2018-07-10T05:51:52.579Z,7.85
2018-07-10T05:54:23.142Z,10.48
2018-07-10T05:56:53.172Z,6.87
2018-07-10T05:59:23.482Z,7.47
2018-07-10T06:01:53.155Z,6.85
2018-07-10T06:04:23.424Z,7.03
2018-07-10T06:06:54.454Z,7.92
2018-07-10T06:09:24.291Z,6.05
2018-07-10T06:11:54.677Z,7.33
2018-07-10T06:14:24.910Z,7.50
2018-07-10T06:16:54.698Z,7.62
2018-07-10T06:19:24.830Z,6.78
2018-07-10T06:21:54.949Z,9.43
2018-07-10T06:24:38.195Z,11.38
2018-07-10T06:27:11.766Z,15.48
2018-07-10T06:30:05.056Z,11.30
2018-07-10T06:32:58.799Z,8.00
2018-07-10T06:35:40.182Z,7.42
2018-07-10T06:38:19.756Z,8.20
2018-07-10T06:40:51.528Z,8.63
2018-07-10T06:43:53.995Z,9.83
2018-07-10T06:46:29.052Z,4.47
2018-07-10T06:49:07.282Z,7.03
2018-07-10T06:51:38.001Z,5.47
2018-07-10T06:54:07.774Z,5.45
2018-07-10T06:56:38.708Z,5.87
2018-07-10T06:59:09.065Z,6.33
2018-07-10T07:01:42.210Z,8.48
2018-07-10T07:04:12.308Z,10.58
2018-07-10T07:06:41.797Z,6.67
2018-07-10T07:09:13.809Z,6.60
2018-07-10T07:11:44.757Z,4.50
2018-07-10T07:14:14.270Z,8.20
2018-07-10T07:16:44.203Z,7.83
2018-07-10T07:19:13.929Z,8.33
2018-07-10T07:21:45.248Z,7.87
2018-07-10T07:24:15.373Z,10.28
2018-07-10T07:26:45.476Z,10.70
2018-07-10T07:29:15.398Z,6.42
2018-07-10T07:31:45.293Z,13.58
2018-07-10T07:34:15.704Z,10.38
2018-07-10T07:36:45.453Z,9.73
2018-07-10T07:39:15.637Z,6.50
2018-07-10T07:41:46.161Z,5.35
2018-07-10T07:44:16.576Z,8.38
2018-07-10T07:46:47.544Z,7.28
2018-07-10T07:49:18.506Z,10.28
2018-07-10T07:51:48.327Z,8.08
2018-07-10T07:54:18.278Z,8.28
2018-07-10T07:56:48.572Z,6.47
2018-07-10T07:59:18.985Z,6.37
2018-07-10T08:01:50.847Z,8.63
2018-07-10T08:04:21.175Z,8.35
2018-07-10T08:06:53.468Z,7.92
2018-07-10T08:09:23.296Z,7.62
2018-07-10T08:11:53.337Z,11.43
2018-07-10T08:14:23.914Z,5.72
2018-07-10T08:16:54.704Z,7.80
2018-07-10T08:19:25.415Z,6.05
2018-07-10T08:21:56.298Z,9.53
2018-07-10T08:24:27.319Z,5.95
2018-07-10T08:26:59.304Z,8.08
2018-07-10T08:29:30.651Z,7.87
2018-07-10T08:32:00.971Z,8.60
2018-07-10T08:34:31.805Z,6.35
2018-07-10T08:37:02.509Z,8.83
2018-07-10T08:39:32.477Z,7.45
2018-07-10T08:42:07.060Z,6.30
2018-07-10T08:44:37.644Z,6.35
2018-07-10T08:47:10.250Z,7.35
2018-07-10T08:49:41.858Z,5.95
2018-07-10T08:52:13.741Z,9.03
2018-07-10T08:54:44.233Z,10.95
2018-07-10T08:57:14.862Z,4.92
2018-07-10T08:59:45.663Z,7.92
2018-07-10T09:02:15.517Z,7.05
2018-07-10T09:04:45.564Z,6.35
2018-07-10T09:07:15.602Z,5.30
2018-07-10T09:09:46.115Z,7.65
2018-07-10T09:12:15.876Z,7.03
2018-07-10T09:14:46.275Z,6.47
2018-07-10T09:17:16.565Z,6.20
2018-07-10T09:19:46.401Z,7.42
2018-07-10T09:22:16.312Z,7.15
2018-07-10T09:24:52.530Z,8.28
2018-07-10T09:27:49.503Z,9.45
2018-07-10T09:30:19.704Z,7.03
2018-07-10T09:32:49.780Z,5.45
2018-07-10T09:35:20.153Z,5.95
2018-07-10T09:37:49.982Z,7.35
2018-07-10T09:40:20.708Z,5.03
2018-07-10T09:42:57.794Z,7.40
2018-07-10T09:45:29.555Z,6.03
2018-07-10T09:47:59.026Z,5.17
2018-07-10T09:50:29.466Z,6.40
2018-07-10T09:52:59.811Z,8.93
2018-07-10T09:55:29.777Z,4.70
2018-07-10T09:58:00.724Z,6.08
2018-07-10T10:00:36.173Z,7.20
2018-07-10T10:03:05.812Z,5.70
2018-07-10T10:05:38.635Z,4.15
2018-07-10T10:08:08.872Z,4.12
2018-07-10T10:10:38.660Z,5.53
2018-07-10T10:13:07.878Z,5.53
2018-07-10T10:15:37.763Z,5.05
2018-07-10T10:18:09.235Z,6.30
2018-07-10T10:20:39.555Z,5.17
2018-07-10T10:23:09.697Z,4.25
2018-07-10T10:25:39.856Z,5.50
2018-07-10T10:28:10.619Z,4.22
2018-07-10T10:30:40.983Z,3.80
2018-07-10T10:33:12.380Z,4.15
2018-07-10T10:35:41.933Z,4.62
2018-07-10T10:38:11.577Z,7.35
2018-07-10T10:40:41.936Z,5.28
2018-07-10T10:43:12.604Z,5.25
2018-07-10T10:45:42.128Z,3.77
2018-07-10T10:48:11.764Z,3.25
2018-07-10T10:50:43.681Z,3.65
2018-07-10T10:53:13.605Z,7.17
2018-07-10T10:55:44.125Z,3.05
2018-07-10T10:58:13.520Z,4.78
2018-07-10T11:00:42.581Z,6.00
2018-07-10T11:03:13.870Z,5.45
2018-07-10T11:05:44.741Z,4.90
2018-07-10T11:08:14.559Z,5.47
2018-07-10T11:10:45.065Z,4.17
2018-07-10T11:13:15.372Z,21.23
2018-07-10T11:15:46.467Z,9.28
2018-07-10T11:18:35.321Z,3.30
2018-07-10T11:21:12.540Z,6.37
2018-07-10T11:23:50.815Z,7.40
2018-07-10T11:26:25.076Z,4.00
2018-07-10T11:28:55.555Z,6.58
2018-07-10T11:31:25.327Z,5.37
2018-07-10T11:33:54.252Z,5.65
2018-07-10T11:36:23.558Z,5.70
2018-07-10T11:38:53.261Z,5.95
2018-07-10T11:41:24.029Z,7.78
2018-07-10T11:43:54.196Z,3.83
2018-07-10T11:46:27.709Z,7.08
2018-07-10T11:48:56.653Z,4.22
2018-07-10T11:51:25.554Z,5.05
2018-07-10T11:53:54.886Z,5.15
2018-07-10T11:56:28.540Z,7.08
2018-07-10T11:58:57.893Z,3.60
2018-07-10T12:01:27.774Z,8.65
2018-07-10T12:03:57.604Z,5.08
2018-07-10T12:06:27.477Z,4.80
2018-07-10T12:08:58.588Z,4.83
2018-07-10T12:11:30.617Z,3.08
2018-07-10T12:14:00.474Z,3.72
2018-07-10T12:16:30.580Z,5.42
2018-07-10T12:19:00.989Z,4.85
2018-07-10T12:21:32.861Z,4.67
2018-07-10T12:24:03.145Z,3.90
2018-07-10T12:26:33.706Z,4.03
2018-07-10T12:29:03.698Z,5.90
2018-07-10T12:31:32.978Z,7.15
2018-07-10T12:34:02.570Z,5.28
2018-07-10T12:36:31.720Z,4.05
2018-07-10T12:39:07.197Z,8.18
2018-07-10T12:41:36.638Z,4.35
2018-07-10T12:44:06.714Z,4.67
2018-07-10T12:46:35.721Z,4.42
2018-07-10T12:49:04.635Z,5.95
2018-07-10T12:51:35.589Z,2.87
2018-07-10T12:54:09.740Z,5.65
2018-07-10T12:56:41.838Z,5.22
2018-07-10T12:59:25.969Z,4.70
2018-07-10T13:01:55.671Z,5.87
2018-07-10T13:04:34.737Z,4.83
2018-07-10T13:07:06.879Z,4.12
2018-07-10T13:09:36.618Z,4.05
2018-07-10T13:12:19.464Z,5.50
2018-07-10T13:14:51.502Z,3.37
2018-07-10T13:17:23.504Z,3.60
2018-07-10T13:19:53.856Z,5.22
2018-07-10T13:22:23.320Z,7.25
2018-07-10T13:24:53.172Z,5.25
2018-07-10T13:27:22.900Z,6.05
2018-07-10T13:29:55.830Z,8.43
2018-07-10T13:32:26.108Z,3.70
2018-07-10T13:34:55.056Z,4.87
2018-07-10T13:37:26.277Z,5.35
2018-07-10T13:39:55.332Z,4.72
2018-07-10T13:42:31.742Z,4.58
2018-07-10T13:45:01.728Z,4.65
2018-07-10T13:47:30.917Z,4.25
2018-07-10T13:50:01.246Z,6.22
2018-07-10T13:52:31.185Z,4.58
2018-07-10T13:55:00.989Z,3.25
2018-07-10T13:57:31.099Z,7.42
2018-07-10T14:00:02.053Z,5.47
2018-07-10T14:02:35.154Z,4.67
2018-07-10T14:05:04.999Z,3.80
2018-07-10T14:07:35.013Z,3.30
2018-07-10T14:10:05.084Z,2.75
2018-07-10T14:12:35.390Z,5.35
2018-07-10T14:15:05.819Z,6.85
2018-07-10T14:17:36.649Z,3.85
2018-07-10T14:20:06.529Z,3.15
2018-07-10T14:22:37.285Z,3.33
2018-07-10T14:25:06.949Z,5.10
2018-07-10T14:27:37.329Z,4.33
2018-07-10T14:30:07.796Z,4.22
2018-07-10T14:32:38.316Z,3.33
2018-07-10T14:35:08.558Z,5.22
2018-07-10T14:37:38.512Z,6.47
2018-07-10T14:40:08.408Z,4.60
2018-07-10T14:42:38.946Z,3.45
2018-07-10T14:45:11.756Z,4.05
2018-07-10T14:47:44.825Z,4.37
2018-07-10T14:50:15.143Z,4.33
2018-07-10T14:52:45.454Z,3.40
2018-07-10T14:55:16.081Z,6.75
2018-07-10T14:57:46.332Z,7.40
2018-07-10T15:00:16.382Z,3.55
2018-07-10T15:02:46.856Z,5.33
2018-07-10T15:05:17.693Z,5.62
2018-07-10T15:07:47.728Z,4.87
2018-07-10T15:10:21.872Z,5.05
2018-07-10T15:12:51.255Z,4.92
2018-07-10T15:15:21.025Z,4.80
2018-07-10T15:17:56.722Z,3.15
2018-07-10T15:20:26.839Z,5.90
2018-07-10T15:22:57.176Z,3.55
2018-07-10T15:25:32.170Z,5.90
2018-07-10T15:28:01.749Z,6.80
2018-07-10T15:30:31.532Z,4.90
2018-07-10T15:33:15.965Z,4.45
2018-07-10T15:35:57.018Z,6.45
2018-07-10T15:38:27.103Z,5.10
2018-07-10T15:40:57.201Z,3.67
2018-07-10T15:43:39.015Z,3.33
2018-07-10T15:46:11.766Z,4.85
2018-07-10T15:48:41.870Z,3.75
2018-07-10T15:51:11.569Z,3.92
2018-07-10T15:53:42.333Z,5.75
2018-07-10T15:56:12.015Z,3.98
2018-07-10T15:58:42.129Z,6.40
2018-07-10T16:01:12.046Z,4.60
2018-07-10T16:03:41.873Z,5.00
2018-07-10T16:06:12.107Z,3.70
2018-07-10T16:08:42.918Z,5.95
2018-07-10T16:11:12.917Z,4.42
2018-07-10T16:13:43.627Z,3.80
2018-07-10T16:16:16.950Z,4.10
2018-07-10T16:18:51.092Z,4.00
2018-07-10T16:21:24.671Z,7.12
2018-07-10T16:23:55.381Z,7.05
2018-07-10T16:26:25.775Z,6.33
2018-07-10T16:28:58.864Z,6.67
2018-07-10T16:31:29.495Z,5.20
2018-07-10T16:33:58.576Z,4.10
2018-07-10T16:36:28.617Z,5.17
2018-07-10T16:38:58.537Z,8.58
2018-07-10T16:41:33.749Z,8.58
2018-07-10T16:44:07.361Z,5.55
2018-07-10T16:46:37.042Z,6.97
2018-07-10T16:49:20.504Z,4.62
2018-07-10T16:52:30.801Z,10.00
2018-07-10T16:55:00.889Z,5.30
2018-07-10T16:57:31.230Z,4.45
2018-07-10T17:00:01.909Z,6.87
2018-07-10T17:02:32.021Z,5.15
2018-07-10T17:05:02.235Z,5.67
2018-07-10T17:07:32.365Z,5.62
2018-07-10T17:10:03.654Z,7.33
2018-07-10T17:12:33.048Z,6.42
2018-07-10T17:15:03.131Z,5.22
2018-07-10T17:17:33.135Z,4.65
2018-07-10T17:20:03.194Z,4.60
2018-07-10T17:22:33.926Z,5.50
2018-07-10T17:25:03.859Z,3.08
2018-07-10T17:27:35.764Z,5.53
2018-07-10T17:30:07.075Z,5.75
2018-07-10T17:32:37.877Z,5.78
2018-07-10T17:35:08.047Z,3.33
2018-07-10T17:37:45.174Z,5.40
2018-07-10T17:40:15.800Z,11.00
2018-07-10T17:42:46.939Z,4.75
2018-07-10T17:45:23.853Z,6.92
2018-07-10T17:47:54.467Z,8.15
2018-07-10T17:50:25.318Z,5.45
2018-07-10T17:52:54.994Z,5.17
2018-07-10T17:55:24.749Z,7.60
2018-07-10T17:58:00.505Z,12.53
2018-07-10T18:00:31.846Z,13.45
2018-07-10T18:03:01.838Z,10.38
2018-07-10T18:05:31.943Z,9.33
2018-07-10T18:08:02.007Z,8.60
2018-07-10T18:10:32.301Z,9.45
2018-07-10T18:13:02.348Z,10.10
2018-07-10T18:15:32.772Z,10.48
2018-07-10T18:18:02.298Z,8.27
2018-07-10T18:20:32.509Z,11.95
2018-07-10T18:23:02.808Z,11.18
2018-07-10T18:25:32.707Z,9.05
2018-07-10T18:28:03.197Z,14.23
2018-07-10T18:30:33.611Z,11.97
2018-07-10T18:33:03.464Z,10.35
2018-07-10T18:35:33.227Z,11.75
2018-07-10T18:38:03.133Z,9.48
2018-07-10T18:40:33.516Z,10.43
2018-07-10T18:43:03.305Z,9.00
2018-07-10T18:45:33.172Z,5.70
2018-07-10T18:48:03.462Z,13.93
2018-07-10T18:50:33.342Z,7.78
2018-07-10T18:53:03.719Z,8.95
2018-07-10T18:55:34.177Z,9.90
2018-07-10T18:58:05.069Z,9.13
2018-07-10T19:00:56.942Z,7.30
2018-07-10T19:03:29.893Z,8.25
2018-07-10T19:06:08.977Z,8.88
2018-07-10T19:08:41.392Z,7.70
2018-07-10T19:11:14.484Z,12.07
2018-07-10T19:13:45.897Z,10.98
2018-07-10T19:16:15.982Z,11.50
2018-07-10T19:18:45.984Z,9.67
2018-07-10T19:21:38.460Z,7.20
2018-07-10T19:24:13.572Z,8.33
2018-07-10T19:26:43.732Z,8.97
2018-07-10T19:29:24.062Z,18.83
2018-07-10T19:31:54.060Z,8.63
2018-07-10T19:34:24.949Z,7.13
2018-07-10T19:36:55.852Z,8.67
2018-07-10T19:39:25.685Z,9.03
2018-07-10T19:41:55.018Z,6.73
2018-07-10T19:44:25.522Z,10.83
2018-07-10T19:46:55.698Z,10.63
2018-07-10T19:49:27.115Z,8.20
2018-07-10T19:51:57.836Z,9.03
2018-07-10T19:54:27.936Z,6.70
2018-07-10T19:56:58.171Z,9.17
2018-07-10T19:59:28.742Z,7.50
2018-07-10T20:02:01.593Z,7.80
2018-07-10T20:05:08.145Z,7.60
2018-07-10T20:07:52.277Z,7.55
2018-07-10T20:10:42.543Z,8.77
2018-07-10T20:13:16.599Z,8.37
2018-07-10T20:15:57.971Z,9.53
2018-07-10T20:20:36.325Z,8.60
2018-07-10T20:23:18.405Z,8.03
2018-07-10T20:26:07.070Z,7.60
2018-07-10T20:29:05.836Z,9.30
2018-07-10T20:31:43.200Z,8.47
2018-07-10T20:34:20.341Z,9.47
2018-07-10T20:36:55.547Z,8.33
2018-07-10T20:39:35.210Z,8.53
2018-07-10T20:42:05.916Z,9.73
2018-07-10T20:44:41.637Z,8.03
2018-07-10T20:47:21.867Z,8.27
2018-07-10T20:50:01.750Z,7.67
2018-07-10T20:54:44.923Z,8.27
2018-07-10T20:57:41.517Z,9.63
2018-07-10T21:00:13.869Z,8.73
2018-07-10T21:02:51.105Z,8.03
2018-07-10T21:05:29.502Z,7.83
2018-07-10T21:08:07.210Z,9.03
2018-07-10T21:10:49.937Z,8.87
2018-07-10T21:13:24.677Z,9.43
2018-07-10T21:15:59.496Z,8.67
2018-07-10T21:19:36.174Z,9.30
2018-07-10T21:22:11.477Z,13.73
2018-07-10T21:24:48.293Z,9.70
2018-07-10T21:29:28.568Z,10.07
2018-07-10T21:32:03.369Z,8.70
2018-07-10T21:34:40.304Z,8.47
2018-07-10T21:37:19.624Z,10.23
2018-07-10T21:40:07.987Z,8.90
2018-07-10T21:43:42.854Z,8.90
2018-07-10T21:46:21.501Z,11.30
2018-07-10T21:49:19.056Z,8.00
2018-07-10T21:51:51.295Z,8.90
2018-07-10T21:54:21.276Z,8.50
2018-07-10T21:56:51.385Z,8.40
2018-07-10T21:59:22.377Z,9.90
2018-07-10T22:02:13.614Z,8.67
2018-07-10T22:04:43.440Z,10.37
2018-07-10T22:07:14.389Z,8.67
2018-07-10T22:09:44.760Z,9.37
2018-07-10T22:12:16.214Z,9.27
2018-07-10T22:14:46.509Z,11.17
2018-07-10T22:17:19.070Z,9.27
2018-07-10T22:19:50.061Z,10.57
2018-07-10T22:22:20.497Z,9.37
2018-07-10T22:24:51.628Z,9.80
2018-07-10T22:27:22.285Z,9.97
2018-07-10T22:30:00.805Z,8.67
2018-07-10T22:33:05.669Z,9.70
2018-07-10T22:35:35.188Z,9.33
2018-07-10T22:38:05.363Z,10.73
2018-07-10T22:40:35.930Z,10.98
2018-07-10T22:43:06.449Z,9.90
2018-07-10T22:45:36.392Z,11.07
2018-07-10T22:48:05.997Z,9.37
2018-07-10T22:50:35.878Z,9.27
2018-07-10T22:53:05.853Z,9.67
2018-07-10T22:55:35.417Z,10.33
2018-07-10T22:58:09.281Z,9.87
2018-07-10T23:00:40.436Z,10.73
2018-07-10T23:03:18.133Z,11.03
2018-07-10T23:05:49.772Z,11.83
2018-07-10T23:08:22.073Z,10.37
2018-07-10T23:10:51.785Z,10.87
2018-07-10T23:13:21.696Z,10.10
2018-07-10T23:15:51.329Z,9.83
2018-07-10T23:18:21.345Z,10.17
2018-07-10T23:20:51.196Z,9.97
2018-07-10T23:23:22.180Z,9.40
2018-07-10T23:25:52.634Z,9.90
2018-07-10T23:28:22.437Z,9.07
2018-07-10T23:30:52.685Z,9.83
2018-07-10T23:33:24.974Z,10.40
2018-07-10T23:35:57.618Z,9.43
2018-07-10T23:38:38.477Z,8.30
2018-07-10T23:41:16.888Z,9.47
2018-07-10T23:43:48.980Z,10.57
2018-07-10T23:47:35.137Z,9.93
2018-07-10T23:50:09.720Z,10.13
2018-07-10T23:52:53.805Z,10.83
2018-07-10T23:55:23.922Z,11.23
2018-07-10T23:57:53.780Z,11.53
